Courtland, California
Current Conditions -  °F | °C
As of 5:53 AM on Sunday 21 Dec 2014 (Local Time) from KSAC Reporting Station
Overcast Overcast  
Wind Chill: 57°   Ceiling: 1000
Heat Index: 57°   Visibility: 9mi
Dew Point: 53°   Wind: 6mph
Humidity: 87%   Direction: 120°ESE
Pressure: 30.25"   Gusts: NA
Location:  38.33°N, 121.57°W
Report Text: KSAC 211353Z 12005KT 9SM OVC010 14/12 A3025 RMK AO2 SLP244 T01390117
Loading
Personal Weather Stations






























Interactive Weather Map New forecast layout! Learn more

10-Day Weather Forecast

Advertisements
Track Severe Weather on mobile